createdAt,value
2023-06-10T00:00:24.839Z,22.66
2023-06-10T00:02:28.082Z,22.67
2023-06-10T00:04:31.010Z,22.64
2023-06-10T00:06:36.786Z,22.61
2023-06-10T00:08:40.872Z,22.60
2023-06-10T00:10:43.757Z,22.56
2023-06-10T00:12:47.932Z,22.54
2023-06-10T00:14:52.710Z,22.51
2023-06-10T00:16:56.276Z,22.49
2023-06-10T00:19:02.329Z,22.48
2023-06-10T00:21:05.876Z,22.44
2023-06-10T00:23:10.581Z,22.42
2023-06-10T00:25:13.567Z,22.40
2023-06-10T00:27:16.499Z,22.40
2023-06-10T00:29:21.456Z,22.39
2023-06-10T00:31:24.454Z,22.36
2023-06-10T00:33:27.342Z,22.35
2023-06-10T00:35:30.181Z,22.36
2023-06-10T00:37:33.164Z,22.36
2023-06-10T00:39:36.151Z,22.37
2023-06-10T00:41:40.913Z,22.37
2023-06-10T00:43:43.842Z,22.43
2023-06-10T00:45:48.064Z,22.45
2023-06-10T00:47:50.970Z,22.49
2023-06-10T00:49:56.626Z,22.54
2023-06-10T00:52:02.295Z,22.63
2023-06-10T00:54:06.347Z,22.64
2023-06-10T00:56:10.038Z,22.69
2023-06-10T00:58:13.516Z,22.67
2023-06-10T01:00:17.209Z,22.66
2023-06-10T01:02:21.568Z,22.64
2023-06-10T01:04:24.873Z,22.63
2023-06-10T01:06:38.469Z,22.61
2023-06-10T01:08:49.644Z,22.59
2023-06-10T01:10:55.617Z,22.55
2023-06-10T01:13:03.547Z,22.53
2023-06-10T01:15:08.985Z,22.53
2023-06-10T01:17:12.695Z,22.52
2023-06-10T01:19:18.893Z,22.50
2023-06-10T01:21:25.839Z,22.47
2023-06-10T01:23:29.334Z,22.47
2023-06-10T01:25:33.943Z,22.41
2023-06-10T01:27:41.063Z,22.44
2023-06-10T01:29:49.370Z,22.44
2023-06-10T01:32:04.406Z,22.44
2023-06-10T01:34:11.888Z,22.41
2023-06-10T01:36:17.371Z,22.40
2023-06-10T01:38:22.520Z,22.42
2023-06-10T01:40:27.333Z,22.42
2023-06-10T01:42:30.661Z,22.39
2023-06-10T01:44:34.243Z,22.40
2023-06-10T01:46:37.563Z,22.37
2023-06-10T01:48:40.738Z,22.34
2023-06-10T01:50:44.859Z,22.35
2023-06-10T01:52:47.789Z,22.32
2023-06-10T01:54:51.920Z,22.35
2023-06-10T01:56:54.813Z,22.35
2023-06-10T01:59:00.230Z,22.33
2023-06-10T02:01:03.217Z,22.34
2023-06-10T02:03:06.386Z,22.30
2023-06-10T02:05:09.882Z,22.31
2023-06-10T02:07:13.320Z,22.37
2023-06-10T02:09:16.294Z,22.40
2023-06-10T02:11:20.575Z,22.34
2023-06-10T02:13:23.408Z,22.36
2023-06-10T02:15:30.645Z,22.33
2023-06-10T02:17:33.637Z,22.26
2023-06-10T02:19:37.700Z,22.28
2023-06-10T02:21:40.678Z,22.33
2023-06-10T02:23:43.649Z,22.29
2023-06-10T02:25:46.532Z,22.36
2023-06-10T02:27:50.941Z,22.35
2023-06-10T02:29:54.324Z,22.33
2023-06-10T02:31:57.813Z,22.31
2023-06-10T02:34:01.340Z,22.25
2023-06-10T02:36:04.739Z,22.32
2023-06-10T02:38:07.634Z,22.34
2023-06-10T02:40:13.884Z,22.28
2023-06-10T02:42:16.782Z,22.22
2023-06-10T02:44:21.695Z,22.21
2023-06-10T02:46:25.086Z,22.19
2023-06-10T02:48:30.240Z,22.19
2023-06-10T02:50:33.967Z,22.18
2023-06-10T02:52:59.857Z,22.15
2023-06-10T02:55:02.888Z,22.11
2023-06-10T02:57:06.518Z,22.09
2023-06-10T02:59:09.489Z,22.10
2023-06-10T03:01:14.187Z,22.12
2023-06-10T03:03:28.702Z,22.08
2023-06-10T03:05:39.963Z,22.08
2023-06-10T03:07:43.569Z,22.04
2023-06-10T03:09:46.479Z,22.03
2023-06-10T03:11:50.994Z,22.03
2023-06-10T03:13:54.744Z,22.00
2023-06-10T03:15:58.796Z,21.93
2023-06-10T03:18:04.224Z,21.80
2023-06-10T03:20:11.172Z,21.78
2023-06-10T03:22:17.146Z,21.78
2023-06-10T03:24:27.206Z,21.82
2023-06-10T03:26:30.111Z,21.77
2023-06-10T03:28:33.164Z,21.76
2023-06-10T03:30:36.061Z,21.70
2023-06-10T03:32:38.969Z,21.70
2023-06-10T03:34:46.666Z,21.70
2023-06-10T03:36:50.109Z,21.67
2023-06-10T03:38:54.935Z,21.65
2023-06-10T03:40:58.336Z,21.60
2023-06-10T03:43:01.694Z,21.59
2023-06-10T03:45:07.013Z,21.58
2023-06-10T03:47:11.832Z,21.53
2023-06-10T03:51:18.539Z,21.45
2023-06-10T03:53:28.691Z,21.47
2023-06-10T03:55:32.241Z,21.48
2023-06-10T03:57:36.628Z,21.49
2023-06-10T03:59:39.566Z,21.46
2023-06-10T04:01:42.828Z,21.44
2023-06-10T04:03:45.787Z,21.45
2023-06-10T04:05:48.701Z,21.34
2023-06-10T04:07:52.936Z,21.32
2023-06-10T04:09:55.869Z,21.25
2023-06-10T04:11:58.667Z,21.31
2023-06-10T04:14:02.105Z,21.38
2023-06-10T04:16:05.411Z,21.34
2023-06-10T04:18:09.496Z,21.37
2023-06-10T04:20:12.930Z,21.39
2023-06-10T04:22:19.662Z,21.38
2023-06-10T04:24:23.925Z,21.39
2023-06-10T04:26:26.757Z,21.28
2023-06-10T04:28:30.061Z,21.37
2023-06-10T04:30:33.339Z,21.43
2023-06-10T04:32:37.457Z,21.50
2023-06-10T04:34:42.210Z,21.44
2023-06-10T04:36:45.094Z,21.42
2023-06-10T04:38:48.341Z,21.46
2023-06-10T04:40:52.715Z,21.52
2023-06-10T04:42:57.314Z,21.56
2023-06-10T04:45:00.555Z,21.55
2023-06-10T04:47:04.124Z,21.55
2023-06-10T04:49:07.129Z,21.56
2023-06-10T04:51:09.992Z,21.57
2023-06-10T04:53:13.015Z,21.61
2023-06-10T04:55:19.766Z,21.62
2023-06-10T04:57:23.966Z,21.66
2023-06-10T04:59:26.975Z,21.59
2023-06-10T05:01:29.852Z,21.66
2023-06-10T05:03:32.849Z,21.68
2023-06-10T05:05:35.914Z,21.72
2023-06-10T05:07:38.800Z,21.70
2023-06-10T05:09:41.620Z,21.75
2023-06-10T05:11:44.521Z,21.73
2023-06-10T05:13:48.813Z,21.80
2023-06-10T05:15:51.754Z,21.81
2023-06-10T05:17:54.711Z,21.81
2023-06-10T05:19:57.941Z,21.83
2023-06-10T05:22:00.808Z,21.79
2023-06-10T05:24:03.678Z,21.84
2023-06-10T05:26:06.534Z,21.91
2023-06-10T05:28:12.900Z,21.97
2023-06-10T05:30:19.835Z,22.05
2023-06-10T05:32:23.190Z,22.04
2023-06-10T05:34:26.121Z,22.07
2023-06-10T05:36:28.973Z,22.15
2023-06-10T05:38:31.754Z,22.23
2023-06-10T05:40:34.572Z,22.35
2023-06-10T05:42:37.455Z,22.31
2023-06-10T05:44:40.421Z,22.38
2023-06-10T05:46:44.654Z,22.44
2023-06-10T05:48:47.511Z,22.49
2023-06-10T05:50:50.281Z,22.57
2023-06-10T05:52:54.743Z,22.61
2023-06-10T05:54:57.611Z,22.66
2023-06-10T05:57:00.562Z,22.64
2023-06-10T05:59:03.410Z,22.76
2023-06-10T06:01:06.298Z,22.83
2023-06-10T06:03:11.386Z,22.79
2023-06-10T06:05:14.579Z,22.82
2023-06-10T06:07:18.005Z,22.89
2023-06-10T06:09:20.928Z,22.98
2023-06-10T06:11:24.206Z,23.13
2023-06-10T06:13:27.124Z,23.10
2023-06-10T06:15:30.027Z,23.21
2023-06-10T06:17:32.899Z,23.30
2023-06-10T06:19:37.087Z,23.34
2023-06-10T06:21:39.964Z,23.41
2023-06-10T06:23:42.873Z,23.58
2023-06-10T06:25:45.742Z,23.56
2023-06-10T06:27:48.618Z,23.56
2023-06-10T06:29:51.771Z,23.67
2023-06-10T06:31:55.208Z,23.76
2023-06-10T06:34:01.022Z,23.88
2023-06-10T06:36:05.658Z,24.01
2023-06-10T06:38:08.442Z,23.95
2023-06-10T06:40:15.076Z,24.11
2023-06-10T06:42:17.951Z,24.21
2023-06-10T06:44:53.143Z,24.34
2023-06-10T06:46:55.963Z,24.38
2023-06-10T06:48:58.967Z,24.46
2023-06-10T06:51:01.869Z,24.55
2023-06-10T06:53:06.815Z,24.69
2023-06-10T06:55:10.568Z,24.74
2023-06-10T06:57:13.636Z,24.83
2023-06-10T06:59:17.516Z,24.89
2023-06-10T07:01:20.743Z,24.92
2023-06-10T07:03:23.696Z,25.00
2023-06-10T07:05:28.272Z,25.06
2023-06-10T07:07:31.292Z,25.13
2023-06-10T07:09:35.547Z,25.23
2023-06-10T07:11:38.506Z,25.33
2023-06-10T07:13:41.305Z,25.36
2023-06-10T07:15:44.111Z,25.41
2023-06-10T07:17:47.121Z,25.50
2023-06-10T07:19:50.025Z,25.63
2023-06-10T07:21:52.935Z,25.66
2023-06-10T07:23:55.802Z,25.70
2023-06-10T07:26:00.040Z,25.79
2023-06-10T07:28:02.868Z,25.84
2023-06-10T07:30:07.847Z,26.00
2023-06-10T07:32:10.794Z,25.91
2023-06-10T07:34:13.601Z,26.01
2023-06-10T07:36:16.539Z,26.11
2023-06-10T07:38:19.620Z,26.10
2023-06-10T07:40:22.460Z,26.07
2023-06-10T07:42:26.636Z,26.05
2023-06-10T07:44:29.332Z,26.05
2023-06-10T07:46:32.283Z,26.18
2023-06-10T07:48:35.159Z,26.25
2023-06-10T07:50:38.096Z,26.28
2023-06-10T07:52:40.894Z,26.37
2023-06-10T07:54:43.773Z,26.46
2023-06-10T07:56:46.601Z,26.54
2023-06-10T07:58:50.813Z,26.54
2023-06-10T08:00:53.567Z,26.84
2023-06-10T08:02:56.805Z,26.64
2023-06-10T08:04:59.824Z,26.68
2023-06-10T08:07:02.809Z,26.68
2023-06-10T08:09:15.100Z,26.71
2023-06-10T08:11:17.995Z,26.64
2023-06-10T08:13:20.941Z,26.59
2023-06-10T08:15:25.156Z,26.60
2023-06-10T08:17:27.879Z,26.82
2023-06-10T08:19:31.809Z,26.81
2023-06-10T08:21:34.644Z,26.88
2023-06-10T08:23:37.548Z,27.11
2023-06-10T08:25:40.497Z,27.16
2023-06-10T08:27:43.345Z,27.09
2023-06-10T08:29:46.165Z,27.21
2023-06-10T08:31:50.406Z,27.33
2023-06-10T08:33:53.176Z,27.23
2023-06-10T08:35:56.123Z,27.29
2023-06-10T08:37:58.911Z,27.28
2023-06-10T08:40:02.189Z,27.35
2023-06-10T08:42:14.938Z,27.48
2023-06-10T08:44:24.306Z,27.39
2023-06-10T08:46:27.509Z,27.40
2023-06-10T08:48:33.113Z,27.54
2023-06-10T08:50:38.458Z,27.63
2023-06-10T08:52:45.578Z,27.81
2023-06-10T08:54:56.554Z,27.80
2023-06-10T08:57:01.546Z,27.80
2023-06-10T08:59:05.323Z,27.91
2023-06-10T09:01:08.417Z,27.94
2023-06-10T09:03:11.674Z,27.95
2023-06-10T09:05:16.183Z,28.03
2023-06-10T09:07:19.387Z,28.02
2023-06-10T09:09:22.281Z,28.05
2023-06-10T09:11:25.085Z,27.90
2023-06-10T09:13:27.977Z,27.85
2023-06-10T09:15:30.932Z,27.94
2023-06-10T09:17:34.010Z,28.18
2023-06-10T09:19:37.682Z,28.39
2023-06-10T09:21:41.878Z,28.28
2023-06-10T09:23:44.865Z,28.40
2023-06-10T09:25:47.704Z,28.28
2023-06-10T09:27:54.716Z,28.16
2023-06-10T09:29:58.835Z,28.09
2023-06-10T09:32:03.257Z,28.16
2023-06-10T09:34:08.478Z,28.15
2023-06-10T09:36:11.349Z,28.41
2023-06-10T09:38:17.563Z,28.49
2023-06-10T09:40:20.508Z,28.44
2023-06-10T09:42:23.528Z,28.10
2023-06-10T09:44:26.616Z,27.90
2023-06-10T09:46:33.620Z,27.84
2023-06-10T09:48:43.879Z,27.71
2023-06-10T09:50:47.829Z,27.53
2023-06-10T09:52:50.667Z,27.42
2023-06-10T09:54:55.350Z,27.33
2023-06-10T09:56:59.831Z,27.33
2023-06-10T09:59:02.950Z,27.75
2023-06-10T10:01:08.876Z,27.63
2023-06-10T10:03:12.416Z,27.43
2023-06-10T10:05:16.895Z,27.28
2023-06-10T10:07:20.059Z,27.35
2023-06-10T10:09:22.911Z,27.54
2023-06-10T10:11:28.371Z,27.49
2023-06-10T10:13:35.549Z,27.76
2023-06-10T10:15:42.487Z,27.68
2023-06-10T10:17:51.525Z,27.74
2023-06-10T10:20:00.331Z,27.78
2023-06-10T10:22:09.814Z,27.74
2023-06-10T10:24:18.331Z,27.79
2023-06-10T10:26:23.463Z,27.77
2023-06-10T10:28:36.628Z,27.69
2023-06-10T10:30:42.784Z,27.73
2023-06-10T10:32:54.269Z,27.74
2023-06-10T10:35:05.869Z,27.98
2023-06-10T10:37:08.981Z,28.07
2023-06-10T10:39:13.185Z,28.03
2023-06-10T10:41:17.043Z,28.00
2023-06-10T10:43:20.412Z,28.21
2023-06-10T10:45:24.947Z,28.43
2023-06-10T10:47:30.344Z,28.78
2023-06-10T10:49:35.737Z,28.96
2023-06-10T10:51:38.581Z,28.78
2023-06-10T10:53:41.895Z,28.68
2023-06-10T10:55:59.679Z,28.46
2023-06-10T10:58:06.046Z,28.36
2023-06-10T11:00:12.184Z,28.27
2023-06-10T11:02:19.927Z,28.36
2023-06-10T11:04:22.989Z,28.64
2023-06-10T11:06:26.255Z,28.76
2023-06-10T11:08:48.329Z,29.12
2023-06-10T11:10:53.978Z,29.08
2023-06-10T11:12:56.909Z,28.92
2023-06-10T11:15:01.336Z,29.18
2023-06-10T11:17:21.705Z,29.31
2023-06-10T11:19:35.547Z,28.87
2023-06-10T11:22:00.968Z,28.84
2023-06-10T11:24:14.469Z,28.75
2023-06-10T11:26:23.259Z,28.88
2023-06-10T11:28:29.931Z,29.14
2023-06-10T11:30:37.000Z,29.32
2023-06-10T11:32:45.153Z,29.40
2023-06-10T11:34:54.631Z,29.64
2023-06-10T11:36:58.064Z,29.55
2023-06-10T11:39:02.767Z,29.54
2023-06-10T11:41:05.637Z,29.80
2023-06-10T11:43:08.697Z,29.86
2023-06-10T11:45:12.366Z,29.80
2023-06-10T11:47:15.283Z,30.00
2023-06-10T11:49:19.923Z,29.89
2023-06-10T11:51:23.390Z,29.73
2023-06-10T11:53:26.230Z,29.86
2023-06-10T11:55:43.097Z,29.85
2023-06-10T11:57:46.049Z,29.88
2023-06-10T11:59:48.959Z,30.10
2023-06-10T12:01:51.855Z,30.22
2023-06-10T12:04:01.981Z,30.27
2023-06-10T12:06:08.145Z,30.31
2023-06-10T12:08:12.152Z,30.51
2023-06-10T12:10:26.929Z,30.59
2023-06-10T12:12:30.694Z,30.34
2023-06-10T12:14:52.620Z,29.87
2023-06-10T12:16:55.540Z,29.63
2023-06-10T12:19:04.466Z,29.50
2023-06-10T12:21:19.570Z,29.67
2023-06-10T12:23:22.595Z,30.10
2023-06-10T12:25:29.346Z,30.18
2023-06-10T12:27:33.189Z,30.41
2023-06-10T12:29:36.066Z,30.52
2023-06-10T12:31:54.422Z,30.75
2023-06-10T12:34:09.894Z,30.48
2023-06-10T12:36:19.478Z,30.24
2023-06-10T12:38:28.099Z,30.01
2023-06-10T12:40:32.462Z,29.82
2023-06-10T12:42:36.227Z,29.69
2023-06-10T12:44:42.103Z,29.53
2023-06-10T12:46:45.199Z,29.37
2023-06-10T12:48:53.189Z,29.32
2023-06-10T12:50:57.408Z,29.36
2023-06-10T12:53:01.617Z,29.38
2023-06-10T12:55:05.392Z,29.33
2023-06-10T12:57:08.523Z,29.48
2023-06-10T12:59:11.349Z,29.82
2023-06-10T13:01:15.652Z,29.88
2023-06-10T13:03:18.679Z,29.83
2023-06-10T13:05:22.349Z,29.82
2023-06-10T13:07:26.260Z,29.87
2023-06-10T13:09:30.444Z,29.91
2023-06-10T13:11:33.305Z,29.83
2023-06-10T13:13:39.277Z,29.98
2023-06-10T13:15:44.428Z,30.02
2023-06-10T13:17:53.442Z,29.91
2023-06-10T13:19:56.657Z,29.99
2023-06-10T13:21:59.530Z,29.99
2023-06-10T13:24:02.454Z,30.17
2023-06-10T13:26:06.646Z,30.06
2023-06-10T13:28:09.527Z,29.75
2023-06-10T13:30:13.629Z,30.00
2023-06-10T13:32:16.389Z,30.22
2023-06-10T13:34:19.248Z,30.11
2023-06-10T13:36:22.138Z,30.00
2023-06-10T13:38:25.194Z,29.92
2023-06-10T13:40:28.099Z,29.80
2023-06-10T13:42:32.496Z,29.79
2023-06-10T13:44:37.244Z,29.64
2023-06-10T13:46:40.094Z,29.57
2023-06-10T13:48:43.100Z,29.66
2023-06-10T13:50:46.639Z,29.69
2023-06-10T13:52:49.576Z,30.01
2023-06-10T13:54:52.403Z,30.12
2023-06-10T13:56:55.638Z,30.44
2023-06-10T13:59:01.277Z,30.45
2023-06-10T14:01:06.394Z,30.39
2023-06-10T14:03:09.320Z,30.45
2023-06-10T14:05:12.565Z,30.75
2023-06-10T14:07:16.518Z,31.02
2023-06-10T14:09:20.105Z,31.01
2023-06-10T14:11:22.888Z,31.17
2023-06-10T14:13:25.679Z,31.19
2023-06-10T14:15:29.825Z,31.38
2023-06-10T14:17:32.623Z,31.70
2023-06-10T14:19:35.544Z,31.68
2023-06-10T14:21:38.422Z,31.57
2023-06-10T14:23:42.561Z,30.97
2023-06-10T14:25:46.886Z,30.78
2023-06-10T14:27:51.737Z,30.43
2023-06-10T14:29:54.560Z,30.22
2023-06-10T14:31:58.776Z,30.21
2023-06-10T14:34:01.627Z,30.09
2023-06-10T14:36:04.584Z,29.98
2023-06-10T14:38:08.527Z,29.78
2023-06-10T14:40:11.579Z,29.74
2023-06-10T14:42:14.475Z,29.70
2023-06-10T14:44:17.284Z,29.71
2023-06-10T14:46:21.868Z,29.68
2023-06-10T14:48:26.155Z,29.82
2023-06-10T14:50:31.333Z,30.05
2023-06-10T14:52:34.156Z,30.29
2023-06-10T14:54:37.018Z,30.59
2023-06-10T14:56:39.811Z,30.84
2023-06-10T14:58:42.659Z,31.05
2023-06-10T15:00:45.553Z,31.22
2023-06-10T15:02:48.938Z,31.50
2023-06-10T15:04:53.170Z,31.38
2023-06-10T15:06:56.314Z,31.35
2023-06-10T15:08:59.114Z,31.39
2023-06-10T15:11:02.312Z,31.44
2023-06-10T15:13:05.231Z,31.33
2023-06-10T15:15:08.866Z,31.50
2023-06-10T15:17:11.950Z,31.55
2023-06-10T15:19:15.149Z,31.66
2023-06-10T15:21:19.306Z,31.48
2023-06-10T15:23:22.179Z,31.45
2023-06-10T15:25:31.431Z,31.59
2023-06-10T15:27:34.468Z,31.79
2023-06-10T15:29:37.297Z,31.93
2023-06-10T15:31:40.409Z,32.01
2023-06-10T15:33:45.823Z,31.89
2023-06-10T15:35:50.634Z,31.99
2023-06-10T15:37:54.973Z,31.99
2023-06-10T15:39:57.896Z,32.07
2023-06-10T15:42:00.765Z,32.27
2023-06-10T15:44:03.708Z,32.48
2023-06-10T15:46:06.726Z,32.43
2023-06-10T15:48:09.597Z,32.34
2023-06-10T15:50:12.469Z,32.30
2023-06-10T15:52:15.456Z,32.42
2023-06-10T15:54:19.781Z,32.58
2023-06-10T15:56:23.716Z,32.67
2023-06-10T15:58:26.654Z,32.61
2023-06-10T16:00:29.438Z,32.22
2023-06-10T16:02:35.037Z,31.83
2023-06-10T16:04:39.605Z,31.33
2023-06-10T16:06:42.469Z,31.03
2023-06-10T16:08:46.522Z,30.86
2023-06-10T16:10:50.878Z,30.97
2023-06-10T16:12:53.724Z,31.18
2023-06-10T16:14:56.557Z,31.26
2023-06-10T16:16:59.641Z,31.49
2023-06-10T16:19:02.552Z,31.49
2023-06-10T16:21:06.532Z,31.38
2023-06-10T16:23:09.311Z,31.32
2023-06-10T16:25:12.393Z,30.89
2023-06-10T16:27:16.837Z,30.73
2023-06-10T16:29:19.741Z,30.68
2023-06-10T16:31:23.302Z,30.44
2023-06-10T16:33:26.119Z,30.34
2023-06-10T16:35:28.955Z,30.21
2023-06-10T16:37:31.817Z,30.16
2023-06-10T16:39:34.683Z,30.07
2023-06-10T16:41:37.556Z,30.03
2023-06-10T16:43:41.749Z,30.04
2023-06-10T16:45:44.630Z,30.09
2023-06-10T16:47:47.507Z,30.13
2023-06-10T16:49:51.128Z,30.17
2023-06-10T16:51:54.149Z,30.23
2023-06-10T16:53:57.061Z,30.40
2023-06-10T16:56:03.197Z,30.49
2023-06-10T16:58:06.451Z,30.41
2023-06-10T17:00:12.163Z,30.32
2023-06-10T17:02:15.282Z,30.40
2023-06-10T17:04:18.239Z,30.40
2023-06-10T17:06:21.178Z,30.35
2023-06-10T17:08:23.961Z,30.22
2023-06-10T17:10:26.801Z,30.26
2023-06-10T17:12:29.691Z,30.18
2023-06-10T17:14:32.511Z,30.27
2023-06-10T17:16:36.828Z,30.25
2023-06-10T17:18:39.808Z,30.22
2023-06-10T17:20:42.720Z,30.07
2023-06-10T17:22:45.607Z,29.84
2023-06-10T17:24:48.466Z,29.78
2023-06-10T17:26:51.377Z,29.79
2023-06-10T17:28:54.238Z,29.94
2023-06-10T17:30:57.197Z,29.97
2023-06-10T17:33:01.422Z,29.91
2023-06-10T17:35:04.656Z,29.88
2023-06-10T17:37:07.653Z,29.85
2023-06-10T17:39:10.677Z,29.88
2023-06-10T17:41:13.534Z,29.88
2023-06-10T17:43:16.566Z,30.05
2023-06-10T17:45:19.435Z,29.93
2023-06-10T17:47:22.300Z,29.90
2023-06-10T17:49:32.813Z,29.98
2023-06-10T17:51:37.549Z,29.90
2023-06-10T17:53:40.452Z,29.95
2023-06-10T17:55:43.258Z,29.88
2023-06-10T17:57:46.307Z,29.90
2023-06-10T17:59:49.373Z,29.75
2023-06-10T18:01:52.288Z,29.71
2023-06-10T18:03:58.365Z,29.77
2023-06-10T18:06:03.093Z,29.71
2023-06-10T18:08:06.486Z,29.70
2023-06-10T18:10:10.256Z,29.88
2023-06-10T18:12:13.257Z,29.78
2023-06-10T18:14:17.007Z,29.75
2023-06-10T18:16:20.039Z,29.62
2023-06-10T18:18:23.108Z,29.54
2023-06-10T18:20:26.285Z,29.55
2023-06-10T18:22:30.482Z,29.47
2023-06-10T18:24:33.369Z,29.37
2023-06-10T18:26:36.293Z,29.36
2023-06-10T18:28:39.290Z,29.26
2023-06-10T18:30:42.118Z,29.26
2023-06-10T18:32:45.043Z,29.25
2023-06-10T18:34:50.451Z,29.15
2023-06-10T18:36:53.301Z,28.94
2023-06-10T18:38:57.450Z,29.01
2023-06-10T18:41:00.691Z,29.04
2023-06-10T18:43:03.650Z,28.94
2023-06-10T18:45:07.815Z,28.73
2023-06-10T18:47:11.774Z,28.71
2023-06-10T18:49:14.663Z,28.59
2023-06-10T18:51:17.592Z,28.52
2023-06-10T18:53:20.449Z,28.53
2023-06-10T18:55:24.732Z,28.58
2023-06-10T18:57:27.562Z,28.52
2023-06-10T18:59:30.369Z,28.38
2023-06-10T19:01:33.256Z,28.32
2023-06-10T19:03:36.840Z,28.19
2023-06-10T19:05:39.745Z,28.19
2023-06-10T19:07:42.583Z,28.21
2023-06-10T19:09:45.414Z,28.13
2023-06-10T19:11:49.582Z,28.14
2023-06-10T19:13:52.295Z,27.96
2023-06-10T19:15:55.180Z,27.90
2023-06-10T19:17:58.053Z,27.90
2023-06-10T19:20:01.409Z,27.87
2023-06-10T19:22:04.333Z,27.80
2023-06-10T19:24:07.980Z,27.87
2023-06-10T19:26:10.875Z,27.75
2023-06-10T19:28:15.189Z,27.62
2023-06-10T19:30:19.097Z,27.77
2023-06-10T19:32:22.177Z,27.57
2023-06-10T19:34:25.237Z,27.61
2023-06-10T19:36:28.142Z,27.61
2023-06-10T19:38:30.996Z,27.56
2023-06-10T19:40:33.835Z,27.48
2023-06-10T19:42:38.311Z,27.50
2023-06-10T19:44:42.626Z,27.40
2023-06-10T19:46:47.838Z,27.40
2023-06-10T19:48:51.171Z,27.34
2023-06-10T19:50:54.019Z,27.40
2023-06-10T19:52:56.850Z,27.27
2023-06-10T19:55:00.501Z,27.30
2023-06-10T19:57:04.449Z,27.20
2023-06-10T19:59:07.387Z,27.20
2023-06-10T20:01:11.575Z,27.11
2023-06-10T20:03:14.367Z,27.04
2023-06-10T20:05:17.309Z,27.13
2023-06-10T20:07:20.116Z,27.04
2023-06-10T20:09:23.001Z,27.01
2023-06-10T20:11:26.637Z,27.10
2023-06-10T20:13:29.602Z,26.97
2023-06-10T20:15:32.373Z,26.98
2023-06-10T20:17:36.979Z,26.95
2023-06-10T20:19:39.926Z,26.86
2023-06-10T20:21:42.706Z,26.81
2023-06-10T20:23:45.641Z,26.75
2023-06-10T20:25:48.445Z,26.77
2023-06-10T20:27:51.930Z,26.79
2023-06-10T20:29:57.193Z,26.80
2023-06-10T20:32:00.369Z,26.71
2023-06-10T20:34:04.620Z,26.68
2023-06-10T20:36:07.619Z,26.65
2023-06-10T20:38:10.637Z,26.59
2023-06-10T20:40:14.690Z,26.60
2023-06-10T20:42:17.607Z,26.55
2023-06-10T20:44:20.581Z,26.59
2023-06-10T20:46:23.468Z,26.55
2023-06-10T20:48:26.448Z,26.51
2023-06-10T20:50:32.638Z,26.49
2023-06-10T20:52:35.470Z,26.50
2023-06-10T20:54:38.364Z,26.45
2023-06-10T20:56:42.352Z,26.53
2023-06-10T20:58:45.371Z,26.38
2023-06-10T21:00:48.458Z,26.33
2023-06-10T21:02:51.425Z,26.42
2023-06-10T21:04:55.509Z,26.39
2023-06-10T21:06:59.766Z,26.37
2023-06-10T21:09:02.481Z,26.19
2023-06-10T21:11:05.773Z,26.20
2023-06-10T21:13:08.565Z,26.32
2023-06-10T21:15:11.910Z,26.34
2023-06-10T21:17:15.591Z,26.33
2023-06-10T21:19:18.430Z,26.23
2023-06-10T21:21:21.431Z,26.28
2023-06-10T21:23:25.746Z,26.25
2023-06-10T21:25:28.383Z,26.11
2023-06-10T21:27:31.456Z,26.08
2023-06-10T21:29:34.329Z,26.04
2023-06-10T21:31:37.713Z,26.08
2023-06-10T21:33:40.740Z,26.03
2023-06-10T21:35:43.826Z,26.04
2023-06-10T21:37:46.684Z,26.09
2023-06-10T21:39:50.892Z,26.05
2023-06-10T21:41:53.611Z,26.03
2023-06-10T21:43:56.440Z,26.00
2023-06-10T21:46:00.662Z,25.91
2023-06-10T21:48:03.631Z,25.86
2023-06-10T21:50:07.662Z,25.83
2023-06-10T21:52:10.511Z,25.84
2023-06-10T21:54:13.646Z,25.81
2023-06-10T21:56:19.342Z,25.78
2023-06-10T21:58:22.289Z,25.77
2023-06-10T22:00:25.435Z,25.85
2023-06-10T22:02:28.767Z,25.78
2023-06-10T22:04:31.608Z,25.73
2023-06-10T22:06:35.022Z,25.73
2023-06-10T22:08:38.005Z,25.72
2023-06-10T22:10:42.421Z,25.65
2023-06-10T22:12:46.669Z,25.63
2023-06-10T22:14:49.367Z,25.71
2023-06-10T22:16:52.765Z,25.58
2023-06-10T22:18:55.582Z,25.58
2023-06-10T22:20:58.402Z,25.53
2023-06-10T22:23:01.316Z,25.55
2023-06-10T22:25:04.301Z,25.55
2023-06-10T22:27:09.359Z,25.66
2023-06-10T22:29:18.927Z,25.64
2023-06-10T22:31:22.729Z,25.64
2023-06-10T22:33:25.867Z,25.57
2023-06-10T22:35:28.658Z,25.58
2023-06-10T22:37:31.493Z,25.54
2023-06-10T22:39:34.371Z,25.57
2023-06-10T22:41:37.181Z,25.54
2023-06-10T22:43:40.074Z,25.71
2023-06-10T22:45:44.355Z,25.62
2023-06-10T22:47:47.058Z,25.51
2023-06-10T22:49:49.961Z,25.45
2023-06-10T22:51:52.809Z,25.40
2023-06-10T22:53:55.665Z,25.51
2023-06-10T22:55:58.532Z,25.39
2023-06-10T22:58:01.692Z,25.36
2023-06-10T23:00:05.306Z,25.43
2023-06-10T23:02:09.753Z,25.39
2023-06-10T23:04:12.791Z,25.39
2023-06-10T23:06:16.874Z,25.40
2023-06-10T23:08:19.686Z,25.25
2023-06-10T23:10:22.534Z,25.22
2023-06-10T23:12:25.379Z,25.29
2023-06-10T23:14:28.208Z,25.24
2023-06-10T23:16:31.204Z,25.17
2023-06-10T23:18:36.122Z,25.17
2023-06-10T23:20:41.357Z,25.23
2023-06-10T23:22:44.174Z,25.07
2023-06-10T23:24:48.547Z,25.21
2023-06-10T23:26:51.387Z,25.09
2023-06-10T23:28:54.263Z,25.05
2023-06-10T23:30:57.747Z,24.98
2023-06-10T23:33:00.748Z,25.09
2023-06-10T23:35:05.749Z,25.07
2023-06-10T23:37:11.949Z,25.05
2023-06-10T23:39:15.883Z,25.04
2023-06-10T23:41:18.724Z,24.97
2023-06-10T23:43:21.653Z,25.04
2023-06-10T23:45:24.530Z,24.96
2023-06-10T23:47:27.551Z,25.04
2023-06-10T23:49:30.387Z,24.97
2023-06-10T23:51:35.097Z,24.88
2023-06-10T23:53:37.924Z,24.81
2023-06-10T23:55:40.928Z,24.81
2023-06-10T23:57:43.779Z,24.88
2023-06-10T23:59:46.669Z,24.92
